createdAt,value
2022-09-04T04:00:29.844Z,0.00
2022-09-04T04:05:29.756Z,0.00
2022-09-04T04:10:29.683Z,0.00
2022-09-04T04:15:29.640Z,4.00
2022-09-04T04:20:29.586Z,8.00
2022-09-04T04:25:29.541Z,12.00
2022-09-04T04:30:29.465Z,32.00
2022-09-04T04:35:29.426Z,72.00
2022-09-04T04:40:29.374Z,140.00
2022-09-04T04:45:29.301Z,228.00
2022-09-04T04:50:29.261Z,348.00
2022-09-04T04:55:29.208Z,508.00
2022-09-04T05:00:29.163Z,732.00
2022-09-04T05:05:29.103Z,992.00
2022-09-04T05:10:29.048Z,1272.00
2022-09-04T05:15:29.122Z,1712.00
2022-09-04T05:20:28.935Z,2144.00
2022-09-04T05:25:28.880Z,2560.00
2022-09-04T05:30:28.825Z,3120.00
2022-09-04T05:35:31.931Z,3708.00
2022-09-04T05:40:29.719Z,5716.00
2022-09-04T05:45:28.664Z,15232.00
2022-09-04T05:50:28.612Z,17920.00
2022-09-04T05:55:28.558Z,19360.00
2022-09-04T06:00:28.510Z,18304.00
2022-09-04T06:05:28.453Z,19968.00
2022-09-04T06:10:28.398Z,10800.00
2022-09-04T06:15:28.346Z,17920.00
2022-09-04T06:20:28.284Z,20928.00
2022-09-04T06:25:28.231Z,22112.00
2022-09-04T06:30:28.183Z,23488.00
2022-09-04T06:35:28.129Z,22912.00
2022-09-04T06:40:28.076Z,13180.00
2022-09-04T06:45:28.017Z,12460.00
2022-09-04T06:50:27.981Z,12784.00
2022-09-04T06:55:27.910Z,16032.00
2022-09-04T07:00:27.860Z,11412.00
2022-09-04T07:05:27.807Z,11852.00
2022-09-04T07:10:27.756Z,10676.00
2022-09-04T07:15:27.733Z,10632.00
2022-09-04T07:20:27.650Z,10592.00
2022-09-04T07:25:27.594Z,10260.00
2022-09-04T07:30:27.548Z,9800.00
2022-09-04T07:35:27.491Z,9200.00
2022-09-04T07:40:27.917Z,8716.00
2022-09-04T07:45:27.388Z,8268.00
2022-09-04T07:50:27.328Z,7956.00
2022-09-04T07:55:27.274Z,7804.00
2022-09-04T08:00:27.223Z,7552.00
2022-09-04T08:05:27.169Z,7380.00
2022-09-04T08:10:27.118Z,7304.00
2022-09-04T08:15:27.130Z,7252.00
2022-09-04T08:20:27.140Z,7092.00
2022-09-04T08:25:26.954Z,6916.00
2022-09-04T08:30:26.892Z,6756.00
2022-09-04T08:35:26.837Z,6676.00
2022-09-04T08:40:26.801Z,6528.00
2022-09-04T08:45:26.864Z,6372.00
2022-09-04T08:50:26.687Z,6332.00
2022-09-04T08:55:26.623Z,6384.00
2022-09-04T09:00:26.572Z,6372.00
2022-09-04T09:05:26.521Z,6436.00
2022-09-04T09:10:26.471Z,6360.00
2022-09-04T09:15:26.413Z,6340.00
2022-09-04T09:20:26.373Z,6360.00
2022-09-04T09:25:26.321Z,6340.00
2022-09-04T09:30:26.289Z,6408.00
2022-09-04T09:35:26.211Z,6340.00
2022-09-04T09:40:26.176Z,6400.00
2022-09-04T09:45:26.091Z,6364.00
2022-09-04T09:50:26.051Z,6364.00
2022-09-04T09:55:26.008Z,6396.00
2022-09-04T10:00:25.940Z,6316.00
2022-09-04T10:05:25.897Z,6364.00
2022-09-04T10:10:25.841Z,6528.00
2022-09-04T10:15:33.132Z,6604.00
2022-09-04T10:20:25.716Z,6640.00
2022-09-04T10:25:25.679Z,6532.00
2022-09-04T10:30:25.718Z,6492.00
2022-09-04T10:35:25.643Z,6460.00
2022-09-04T10:40:25.531Z,6164.00
2022-09-04T10:45:25.456Z,6376.00
2022-09-04T10:50:25.416Z,6636.00
2022-09-04T10:55:25.364Z,6824.00
2022-09-04T11:00:25.300Z,6868.00
2022-09-04T11:05:25.264Z,7464.00
2022-09-04T11:10:25.306Z,7868.00
2022-09-04T11:15:25.144Z,7900.00
2022-09-04T11:20:25.099Z,8372.00
2022-09-04T11:25:25.050Z,8424.00
2022-09-04T11:30:25.006Z,8300.00
2022-09-04T11:35:24.929Z,8796.00
2022-09-04T11:40:24.884Z,5976.00
2022-09-04T11:45:24.975Z,5884.00
2022-09-04T11:50:24.775Z,8732.00
2022-09-04T11:55:24.736Z,8912.00
2022-09-04T12:00:24.690Z,8952.00
2022-09-04T12:05:24.617Z,9992.00
2022-09-04T12:10:24.572Z,7088.00
2022-09-04T12:15:24.525Z,6056.00
2022-09-04T12:20:24.454Z,8532.00
2022-09-04T12:25:24.434Z,8312.00
2022-09-04T12:30:24.379Z,8340.00
2022-09-04T12:35:27.474Z,8788.00
2022-09-04T12:40:25.273Z,8612.00
2022-09-04T12:45:24.281Z,5164.00
2022-09-04T12:50:24.158Z,7864.00
2022-09-04T12:55:24.090Z,7324.00
2022-09-04T13:00:24.050Z,5788.00
2022-09-04T13:05:24.002Z,5856.00
2022-09-04T13:10:23.957Z,6788.00
2022-09-04T13:15:23.906Z,6616.00
2022-09-04T13:20:23.858Z,4712.00
2022-09-04T13:25:23.783Z,4500.00
2022-09-04T13:30:23.751Z,4844.00
2022-09-04T13:35:23.690Z,5212.00
2022-09-04T13:40:23.623Z,5848.00
2022-09-04T13:45:23.581Z,6576.00
2022-09-04T13:50:25.940Z,6624.00
2022-09-04T13:55:23.463Z,6340.00
2022-09-04T14:00:23.481Z,6016.00
2022-09-04T14:05:23.378Z,5520.00
2022-09-04T14:10:23.305Z,5304.00
2022-09-04T14:15:23.260Z,5508.00
2022-09-04T14:20:23.224Z,6840.00
2022-09-04T14:25:24.230Z,5628.00
2022-09-04T14:30:23.138Z,5528.00
2022-09-04T14:35:23.052Z,5152.00
2022-09-04T14:40:23.002Z,4804.00
2022-09-04T14:45:22.958Z,4360.00
2022-09-04T14:50:22.879Z,5232.00
2022-09-04T14:55:22.839Z,5620.00
2022-09-04T15:00:22.795Z,5668.00
2022-09-04T15:05:22.722Z,6396.00
2022-09-04T15:10:22.683Z,6516.00
2022-09-04T15:15:22.629Z,5112.00
2022-09-04T15:20:22.568Z,5880.00
2022-09-04T15:25:36.649Z,5664.00
2022-09-04T15:30:23.482Z,5808.00
2022-09-04T15:35:22.403Z,5512.00
2022-09-04T15:40:22.367Z,4536.00
2022-09-04T15:45:22.316Z,4332.00
2022-09-04T15:50:22.248Z,4636.00
2022-09-04T15:55:22.210Z,4500.00
2022-09-04T16:00:22.164Z,4500.00
2022-09-04T16:05:24.005Z,3928.00
2022-09-04T16:10:22.137Z,3720.00
2022-09-04T16:15:21.996Z,3664.00
2022-09-04T16:20:21.955Z,3344.00
2022-09-04T16:25:23.575Z,3160.00
2022-09-04T16:30:21.838Z,3020.00
2022-09-04T16:35:21.794Z,2996.00
2022-09-04T16:40:21.724Z,2908.00
2022-09-04T16:45:21.686Z,2912.00
2022-09-04T16:50:21.634Z,2824.00
2022-09-04T16:55:21.587Z,2772.00
2022-09-04T17:00:21.528Z,2512.00
2022-09-04T17:05:21.478Z,2268.00
2022-09-04T17:10:22.419Z,2036.00
2022-09-04T17:15:21.354Z,1840.00
2022-09-04T17:20:21.313Z,1724.00
2022-09-04T17:28:59.892Z,1584.00
2022-09-04T17:30:25.644Z,1392.00
2022-09-04T17:40:43.588Z,1184.00
2022-09-04T17:40:55.964Z,976.00
2022-09-04T17:45:22.095Z,760.00
2022-09-04T17:50:20.991Z,580.00
2022-09-04T17:55:21.198Z,444.00
2022-09-04T18:00:20.869Z,304.00
2022-09-04T18:05:20.825Z,192.00
2022-09-04T18:10:20.780Z,120.00
2022-09-04T18:15:34.306Z,76.00
2022-09-04T18:20:21.669Z,48.00
2022-09-04T18:25:20.621Z,20.00
2022-09-04T18:33:00.427Z,8.00
2022-09-04T18:37:24.736Z,4.00
2022-09-04T18:40:43.152Z,0.00
2022-09-04T18:50:46.626Z,0.00
2022-09-04T18:51:03.109Z,0.00
2022-09-04T18:55:21.288Z,0.00
2022-09-04T19:00:20.245Z,0.00
2022-09-04T19:05:20.206Z,0.00
2022-09-04T19:10:20.128Z,0.00
2022-09-04T19:15:20.090Z,0.00
2022-09-04T19:20:20.033Z,0.00
2022-09-04T19:25:19.979Z,0.00
2022-09-04T19:30:23.844Z,0.00
2022-09-04T19:35:19.870Z,0.00
2022-09-04T19:45:55.133Z,0.00
2022-09-04T19:46:14.823Z,0.00
2022-09-04T19:53:21.350Z,0.00
2022-09-04T19:55:24.729Z,0.00
2022-09-04T20:00:43.208Z,0.00
2022-09-04T20:05:20.535Z,0.00
2022-09-04T20:10:19.484Z,0.00
2022-09-04T20:15:19.438Z,0.00
2022-09-04T20:20:19.386Z,0.00
2022-09-04T20:25:19.329Z,0.00
2022-09-04T20:30:19.278Z,0.00
2022-09-04T20:35:33.290Z,0.00
2022-09-04T20:40:20.167Z,0.00
2022-09-04T20:47:11.326Z,0.00
2022-09-04T20:52:53.679Z,0.00
2022-09-04T20:55:20.006Z,0.00
2022-09-04T21:03:13.782Z,0.00
2022-09-04T21:05:20.060Z,0.00
2022-09-04T21:10:18.847Z,0.00
2022-09-04T21:15:18.790Z,0.00
2022-09-04T21:20:18.740Z,0.00
2022-09-04T21:25:18.869Z,0.00
2022-09-04T21:30:18.625Z,0.00
2022-09-04T21:35:18.580Z,0.00
2022-09-04T21:40:20.210Z,0.00
2022-09-04T21:45:19.465Z,0.00
2022-09-04T21:50:20.308Z,0.00
2022-09-04T21:58:06.738Z,0.00
2022-09-04T22:02:36.344Z,0.00
2022-09-04T22:05:19.260Z,0.00
2022-09-04T22:13:34.539Z,0.00
2022-09-04T22:15:25.050Z,0.00
2022-09-04T22:20:19.096Z,0.00
2022-09-04T22:25:18.034Z,0.00
2022-09-04T22:30:17.988Z,0.00
2022-09-04T22:35:17.933Z,0.00
2022-09-04T22:40:17.961Z,0.00
2022-09-04T22:45:17.824Z,0.00
2022-09-04T22:50:17.768Z,0.00
2022-09-04T22:55:38.477Z,0.00
2022-09-04T23:00:18.662Z,0.00
2022-09-04T23:05:17.605Z,0.00
2022-09-04T23:14:01.021Z,0.00
2022-09-04T23:15:18.497Z,0.00
2022-09-04T23:25:25.781Z,0.00
2022-09-04T23:26:45.672Z,0.00
